sensor_id;sensor_type;location;lat;lon;timestamp;temperature;humidity
1626;DHT22;806;48.770;9.156;2023-08-06T00:02:13;16.70;99.90
1626;DHT22;806;48.770;9.156;2023-08-06T00:04:40;16.70;99.90
1626;DHT22;806;48.770;9.156;2023-08-06T00:07:07;16.80;99.90
1626;DHT22;806;48.770;9.156;2023-08-06T00:09:34;16.80;99.90
1626;DHT22;806;48.770;9.156;2023-08-06T00:12:01;16.80;99.90
1626;DHT22;806;48.770;9.156;2023-08-06T00:14:29;16.80;99.90
1626;DHT22;806;48.770;9.156;2023-08-06T00:16:56;16.80;99.90
1626;DHT22;806;48.770;9.156;2023-08-06T00:19:23;16.80;99.90
1626;DHT22;806;48.770;9.156;2023-08-06T00:21:49;16.70;99.90
1626;DHT22;806;48.770;9.156;2023-08-06T00:24:16;16.70;99.90
1626;DHT22;806;48.770;9.156;2023-08-06T00:26:43;16.60;99.90
1626;DHT22;806;48.770;9.156;2023-08-06T00:29:10;16.60;99.90
1626;DHT22;806;48.770;9.156;2023-08-06T00:31:38;16.40;99.90
1626;DHT22;806;48.770;9.156;2023-08-06T00:34:05;16.40;99.90
1626;DHT22;806;48.770;9.156;2023-08-06T00:36:32;16.30;99.90
1626;DHT22;806;48.770;9.156;2023-08-06T00:38:59;16.30;99.90
1626;DHT22;806;48.770;9.156;2023-08-06T00:41:25;16.30;99.90
1626;DHT22;806;48.770;9.156;2023-08-06T00:43:52;16.30;99.90
1626;DHT22;806;48.770;9.156;2023-08-06T00:46:19;16.30;99.90
1626;DHT22;806;48.770;9.156;2023-08-06T00:48:48;16.30;99.90
1626;DHT22;806;48.770;9.156;2023-08-06T00:51:15;16.30;99.90
1626;DHT22;806;48.770;9.156;2023-08-06T00:53:43;16.20;99.90
1626;DHT22;806;48.770;9.156;2023-08-06T00:56:10;16.20;99.90
1626;DHT22;806;48.770;9.156;2023-08-06T00:58:37;16.20;99.90
1626;DHT22;806;48.770;9.156;2023-08-06T01:01:05;16.00;99.90
1626;DHT22;806;48.770;9.156;2023-08-06T01:03:32;15.80;99.90
1626;DHT22;806;48.770;9.156;2023-08-06T01:06:00;15.80;99.90
1626;DHT22;806;48.770;9.156;2023-08-06T01:08:32;15.70;99.90
1626;DHT22;806;48.770;9.156;2023-08-06T01:11:14;15.70;99.90
1626;DHT22;806;48.770;9.156;2023-08-06T01:13:43;15.60;99.90
1626;DHT22;806;48.770;9.156;2023-08-06T01:16:15;15.60;99.90
1626;DHT22;806;48.770;9.156;2023-08-06T01:18:43;15.60;99.90
1626;DHT22;806;48.770;9.156;2023-08-06T01:21:13;15.60;99.90
1626;DHT22;806;48.770;9.156;2023-08-06T01:23:40;15.60;99.90
1626;DHT22;806;48.770;9.156;2023-08-06T01:26:13;15.70;99.90
1626;DHT22;806;48.770;9.156;2023-08-06T01:28:52;15.80;99.90
1626;DHT22;806;48.770;9.156;2023-08-06T01:31:24;15.80;99.90
1626;DHT22;806;48.770;9.156;2023-08-06T01:33:53;15.80;99.90
1626;DHT22;806;48.770;9.156;2023-08-06T01:36:24;15.80;99.90
1626;DHT22;806;48.770;9.156;2023-08-06T01:38:52;15.70;99.90
1626;DHT22;806;48.770;9.156;2023-08-06T01:41:19;15.60;99.90
1626;DHT22;806;48.770;9.156;2023-08-06T01:43:46;15.60;99.90
1626;DHT22;806;48.770;9.156;2023-08-06T01:46:12;15.80;99.90
1626;DHT22;806;48.770;9.156;2023-08-06T01:48:39;15.90;99.90
1626;DHT22;806;48.770;9.156;2023-08-06T01:51:06;15.80;99.90
1626;DHT22;806;48.770;9.156;2023-08-06T01:53:35;15.80;99.90
1626;DHT22;806;48.770;9.156;2023-08-06T01:56:01;15.80;99.90
1626;DHT22;806;48.770;9.156;2023-08-06T01:58:28;15.80;99.90
1626;DHT22;806;48.770;9.156;2023-08-06T02:00:55;15.80;99.90
1626;DHT22;806;48.770;9.156;2023-08-06T02:03:22;15.80;99.90
1626;DHT22;806;48.770;9.156;2023-08-06T02:05:49;15.80;99.90
1626;DHT22;806;48.770;9.156;2023-08-06T02:08:16;15.70;99.90
1626;DHT22;806;48.770;9.156;2023-08-06T02:10:44;15.50;99.90
1626;DHT22;806;48.770;9.156;2023-08-06T02:13:11;15.50;99.90
1626;DHT22;806;48.770;9.156;2023-08-06T02:15:42;15.50;99.90
1626;DHT22;806;48.770;9.156;2023-08-06T02:18:09;15.60;99.90
1626;DHT22;806;48.770;9.156;2023-08-06T02:20:36;15.60;99.90
1626;DHT22;806;48.770;9.156;2023-08-06T02:23:03;15.50;99.90
1626;DHT22;806;48.770;9.156;2023-08-06T02:25:29;15.40;99.90
1626;DHT22;806;48.770;9.156;2023-08-06T02:27:58;15.40;99.90
1626;DHT22;806;48.770;9.156;2023-08-06T02:30:24;15.30;99.90
1626;DHT22;806;48.770;9.156;2023-08-06T02:32:51;15.10;99.90
1626;DHT22;806;48.770;9.156;2023-08-06T02:35:18;15.10;99.90
1626;DHT22;806;48.770;9.156;2023-08-06T02:37:45;15.00;99.90
1626;DHT22;806;48.770;9.156;2023-08-06T02:40:12;15.00;99.90
1626;DHT22;806;48.770;9.156;2023-08-06T02:42:39;15.10;99.90
1626;DHT22;806;48.770;9.156;2023-08-06T02:45:08;15.10;99.90
1626;DHT22;806;48.770;9.156;2023-08-06T02:47:35;15.10;99.90
1626;DHT22;806;48.770;9.156;2023-08-06T02:50:02;15.10;99.90
1626;DHT22;806;48.770;9.156;2023-08-06T02:52:29;15.00;99.90
1626;DHT22;806;48.770;9.156;2023-08-06T02:54:56;14.90;99.90
1626;DHT22;806;48.770;9.156;2023-08-06T02:57:25;14.90;99.90
1626;DHT22;806;48.770;9.156;2023-08-06T02:59:52;14.90;99.90
1626;DHT22;806;48.770;9.156;2023-08-06T03:02:20;14.90;99.90
1626;DHT22;806;48.770;9.156;2023-08-06T03:04:47;14.90;99.90
1626;DHT22;806;48.770;9.156;2023-08-06T03:07:14;14.90;99.90
1626;DHT22;806;48.770;9.156;2023-08-06T03:09:40;15.00;99.90
1626;DHT22;806;48.770;9.156;2023-08-06T03:12:08;15.00;99.90
1626;DHT22;806;48.770;9.156;2023-08-06T03:14:35;14.90;99.90
1626;DHT22;806;48.770;9.156;2023-08-06T03:17:02;14.90;99.90
1626;DHT22;806;48.770;9.156;2023-08-06T03:19:30;14.90;99.90
1626;DHT22;806;48.770;9.156;2023-08-06T03:21:57;15.00;99.90
1626;DHT22;806;48.770;9.156;2023-08-06T03:24:24;14.90;99.90
1626;DHT22;806;48.770;9.156;2023-08-06T03:26:50;14.80;99.90
1626;DHT22;806;48.770;9.156;2023-08-06T03:29:17;14.90;99.90
1626;DHT22;806;48.770;9.156;2023-08-06T03:31:44;14.80;99.90
1626;DHT22;806;48.770;9.156;2023-08-06T03:34:11;14.70;99.90
1626;DHT22;806;48.770;9.156;2023-08-06T03:36:39;14.70;99.90
1626;DHT22;806;48.770;9.156;2023-08-06T03:39:06;14.70;99.90
1626;DHT22;806;48.770;9.156;2023-08-06T03:41:33;14.70;99.90
1626;DHT22;806;48.770;9.156;2023-08-06T03:44:00;14.80;99.90
1626;DHT22;806;48.770;9.156;2023-08-06T03:46:29;15.00;99.90
1626;DHT22;806;48.770;9.156;2023-08-06T03:48:57;15.10;99.90
1626;DHT22;806;48.770;9.156;2023-08-06T03:51:24;15.10;99.90
1626;DHT22;806;48.770;9.156;2023-08-06T03:53:52;15.10;99.90
1626;DHT22;806;48.770;9.156;2023-08-06T03:56:19;15.10;99.90
1626;DHT22;806;48.770;9.156;2023-08-06T03:58:46;15.10;99.90
1626;DHT22;806;48.770;9.156;2023-08-06T04:01:13;15.00;99.90
1626;DHT22;806;48.770;9.156;2023-08-06T04:03:40;15.00;99.90
1626;DHT22;806;48.770;9.156;2023-08-06T04:06:07;14.90;99.90
1626;DHT22;806;48.770;9.156;2023-08-06T04:08:34;14.90;99.90
1626;DHT22;806;48.770;9.156;2023-08-06T04:11:02;14.90;99.90
1626;DHT22;806;48.770;9.156;2023-08-06T04:13:29;14.90;99.90
1626;DHT22;806;48.770;9.156;2023-08-06T04:16:00;14.90;99.90
1626;DHT22;806;48.770;9.156;2023-08-06T04:18:27;14.90;99.90
1626;DHT22;806;48.770;9.156;2023-08-06T04:20:54;14.90;99.90
1626;DHT22;806;48.770;9.156;2023-08-06T04:23:22;14.90;99.90
1626;DHT22;806;48.770;9.156;2023-08-06T04:25:49;14.80;99.90
1626;DHT22;806;48.770;9.156;2023-08-06T04:28:18;14.80;99.90
1626;DHT22;806;48.770;9.156;2023-08-06T04:30:44;14.90;99.90
1626;DHT22;806;48.770;9.156;2023-08-06T04:33:11;15.00;99.90
1626;DHT22;806;48.770;9.156;2023-08-06T04:35:38;15.10;99.90
1626;DHT22;806;48.770;9.156;2023-08-06T04:38:05;15.20;99.90
1626;DHT22;806;48.770;9.156;2023-08-06T04:40:33;15.30;99.90
1626;DHT22;806;48.770;9.156;2023-08-06T04:43:00;15.50;99.90
1626;DHT22;806;48.770;9.156;2023-08-06T04:45:28;15.70;99.90
1626;DHT22;806;48.770;9.156;2023-08-06T04:47:55;15.70;99.90
1626;DHT22;806;48.770;9.156;2023-08-06T04:50:22;15.70;99.90
1626;DHT22;806;48.770;9.156;2023-08-06T04:52:49;15.60;99.90
1626;DHT22;806;48.770;9.156;2023-08-06T04:55:16;15.50;99.90
1626;DHT22;806;48.770;9.156;2023-08-06T04:57:43;15.40;99.90
1626;DHT22;806;48.770;9.156;2023-08-06T05:00:11;15.30;99.90
1626;DHT22;806;48.770;9.156;2023-08-06T05:02:41;15.30;99.90
1626;DHT22;806;48.770;9.156;2023-08-06T05:05:08;15.20;99.90
1626;DHT22;806;48.770;9.156;2023-08-06T05:07:35;15.30;99.90
1626;DHT22;806;48.770;9.156;2023-08-06T05:10:02;15.30;99.90
1626;DHT22;806;48.770;9.156;2023-08-06T05:12:30;15.30;99.90
1626;DHT22;806;48.770;9.156;2023-08-06T05:14:56;15.30;99.90
1626;DHT22;806;48.770;9.156;2023-08-06T05:17:23;15.20;99.90
1626;DHT22;806;48.770;9.156;2023-08-06T05:19:51;15.20;99.90
1626;DHT22;806;48.770;9.156;2023-08-06T05:22:25;15.10;99.90
1626;DHT22;806;48.770;9.156;2023-08-06T05:24:51;15.10;99.90
1626;DHT22;806;48.770;9.156;2023-08-06T05:27:18;15.20;99.90
1626;DHT22;806;48.770;9.156;2023-08-06T05:29:47;15.40;99.90
1626;DHT22;806;48.770;9.156;2023-08-06T05:32:14;15.50;99.90
1626;DHT22;806;48.770;9.156;2023-08-06T05:34:41;15.60;99.90
1626;DHT22;806;48.770;9.156;2023-08-06T05:37:10;15.70;99.90
1626;DHT22;806;48.770;9.156;2023-08-06T05:39:36;15.60;99.90
1626;DHT22;806;48.770;9.156;2023-08-06T05:42:04;15.50;99.90
1626;DHT22;806;48.770;9.156;2023-08-06T05:44:31;15.50;99.90
1626;DHT22;806;48.770;9.156;2023-08-06T05:46:58;15.60;99.90
1626;DHT22;806;48.770;9.156;2023-08-06T05:49:25;15.70;99.90
1626;DHT22;806;48.770;9.156;2023-08-06T05:51:52;15.80;99.90
1626;DHT22;806;48.770;9.156;2023-08-06T05:54:21;16.00;99.90
1626;DHT22;806;48.770;9.156;2023-08-06T05:56:47;16.00;99.90
1626;DHT22;806;48.770;9.156;2023-08-06T05:59:14;16.20;99.90
1626;DHT22;806;48.770;9.156;2023-08-06T06:01:41;16.20;99.90
1626;DHT22;806;48.770;9.156;2023-08-06T06:04:08;16.30;99.90
1626;DHT22;806;48.770;9.156;2023-08-06T06:06:35;16.50;99.90
1626;DHT22;806;48.770;9.156;2023-08-06T06:09:02;16.60;99.90
1626;DHT22;806;48.770;9.156;2023-08-06T06:11:30;16.60;99.90
1626;DHT22;806;48.770;9.156;2023-08-06T06:13:57;16.40;97.90
1626;DHT22;806;48.770;9.156;2023-08-06T06:16:24;16.30;99.90
1626;DHT22;806;48.770;9.156;2023-08-06T06:18:51;16.10;99.90
1626;DHT22;806;48.770;9.156;2023-08-06T06:21:18;16.00;99.90
1626;DHT22;806;48.770;9.156;2023-08-06T06:23:44;16.00;99.90
1626;DHT22;806;48.770;9.156;2023-08-06T06:26:11;16.00;99.90
1626;DHT22;806;48.770;9.156;2023-08-06T06:28:40;15.90;99.90
1626;DHT22;806;48.770;9.156;2023-08-06T06:31:07;16.00;99.90
1626;DHT22;806;48.770;9.156;2023-08-06T06:33:34;16.00;99.90
1626;DHT22;806;48.770;9.156;2023-08-06T06:36:01;16.20;99.90
1626;DHT22;806;48.770;9.156;2023-08-06T06:38:29;16.30;99.90
1626;DHT22;806;48.770;9.156;2023-08-06T06:40:56;16.30;99.90
1626;DHT22;806;48.770;9.156;2023-08-06T06:43:23;16.30;99.90
1626;DHT22;806;48.770;9.156;2023-08-06T06:45:56;16.20;99.90
1626;DHT22;806;48.770;9.156;2023-08-06T06:48:24;16.20;99.90
1626;DHT22;806;48.770;9.156;2023-08-06T06:50:51;16.20;99.90
1626;DHT22;806;48.770;9.156;2023-08-06T06:53:18;16.30;99.90
1626;DHT22;806;48.770;9.156;2023-08-06T06:55:44;16.30;99.50
1626;DHT22;806;48.770;9.156;2023-08-06T06:58:14;16.20;99.90
1626;DHT22;806;48.770;9.156;2023-08-06T07:00:41;15.90;99.90
1626;DHT22;806;48.770;9.156;2023-08-06T07:03:09;16.00;99.90
1626;DHT22;806;48.770;9.156;2023-08-06T07:05:36;16.00;99.90
1626;DHT22;806;48.770;9.156;2023-08-06T07:08:03;16.20;99.90
1626;DHT22;806;48.770;9.156;2023-08-06T07:10:30;15.90;99.90
1626;DHT22;806;48.770;9.156;2023-08-06T07:12:57;15.70;99.90
1626;DHT22;806;48.770;9.156;2023-08-06T07:15:24;15.60;99.90
1626;DHT22;806;48.770;9.156;2023-08-06T07:17:51;15.50;99.90
1626;DHT22;806;48.770;9.156;2023-08-06T07:20:19;15.50;99.90
1626;DHT22;806;48.770;9.156;2023-08-06T07:22:46;15.60;99.90
1626;DHT22;806;48.770;9.156;2023-08-06T07:25:13;15.60;99.90
1626;DHT22;806;48.770;9.156;2023-08-06T07:27:40;15.60;99.90
1626;DHT22;806;48.770;9.156;2023-08-06T07:30:07;15.50;99.90
1626;DHT22;806;48.770;9.156;2023-08-06T07:32:34;15.60;99.90
1626;DHT22;806;48.770;9.156;2023-08-06T07:35:01;15.60;99.90
1626;DHT22;806;48.770;9.156;2023-08-06T07:37:29;15.50;99.90
1626;DHT22;806;48.770;9.156;2023-08-06T07:39:57;15.40;99.90
1626;DHT22;806;48.770;9.156;2023-08-06T07:42:23;15.40;99.90
1626;DHT22;806;48.770;9.156;2023-08-06T07:44:52;15.40;99.90
1626;DHT22;806;48.770;9.156;2023-08-06T07:47:19;15.50;99.90
1626;DHT22;806;48.770;9.156;2023-08-06T07:49:46;15.80;99.90
1626;DHT22;806;48.770;9.156;2023-08-06T07:52:13;15.80;99.90
1626;DHT22;806;48.770;9.156;2023-08-06T07:54:41;15.90;99.90
1626;DHT22;806;48.770;9.156;2023-08-06T07:57:08;15.90;99.90
1626;DHT22;806;48.770;9.156;2023-08-06T07:59:35;16.00;99.90
1626;DHT22;806;48.770;9.156;2023-08-06T08:02:02;16.00;99.90
1626;DHT22;806;48.770;9.156;2023-08-06T08:04:32;16.00;99.90
1626;DHT22;806;48.770;9.156;2023-08-06T08:06:59;16.10;99.90
1626;DHT22;806;48.770;9.156;2023-08-06T08:09:26;16.10;99.90
1626;DHT22;806;48.770;9.156;2023-08-06T08:11:54;16.20;99.90
1626;DHT22;806;48.770;9.156;2023-08-06T08:14:22;16.20;99.90
1626;DHT22;806;48.770;9.156;2023-08-06T08:16:48;16.30;99.90
1626;DHT22;806;48.770;9.156;2023-08-06T08:19:15;16.50;99.90
1626;DHT22;806;48.770;9.156;2023-08-06T08:21:42;16.60;99.90
1626;DHT22;806;48.770;9.156;2023-08-06T08:24:09;16.90;99.90
1626;DHT22;806;48.770;9.156;2023-08-06T08:26:38;16.80;99.90
1626;DHT22;806;48.770;9.156;2023-08-06T08:29:07;17.00;99.90
1626;DHT22;806;48.770;9.156;2023-08-06T08:31:33;17.10;99.90
1626;DHT22;806;48.770;9.156;2023-08-06T08:34:04;17.20;99.90
1626;DHT22;806;48.770;9.156;2023-08-06T08:36:31;17.20;98.90
1626;DHT22;806;48.770;9.156;2023-08-06T08:38:58;17.20;95.80
1626;DHT22;806;48.770;9.156;2023-08-06T08:41:27;17.00;93.20
1626;DHT22;806;48.770;9.156;2023-08-06T08:43:55;16.90;77.80
1626;DHT22;806;48.770;9.156;2023-08-06T08:46:25;16.80;99.90
1626;DHT22;806;48.770;9.156;2023-08-06T08:48:53;16.90;81.50
1626;DHT22;806;48.770;9.156;2023-08-06T08:51:20;16.80;98.10
1626;DHT22;806;48.770;9.156;2023-08-06T08:53:48;17.00;99.20
1626;DHT22;806;48.770;9.156;2023-08-06T08:56:16;17.00;51.80
1626;DHT22;806;48.770;9.156;2023-08-06T08:58:43;16.80;81.80
1626;DHT22;806;48.770;9.156;2023-08-06T09:01:11;16.60;86.20
1626;DHT22;806;48.770;9.156;2023-08-06T09:03:40;16.60;99.90
1626;DHT22;806;48.770;9.156;2023-08-06T09:06:07;16.70;99.90
1626;DHT22;806;48.770;9.156;2023-08-06T09:08:39;16.70;99.90
1626;DHT22;806;48.770;9.156;2023-08-06T09:11:09;16.80;99.90
1626;DHT22;806;48.770;9.156;2023-08-06T09:13:37;16.70;99.90
1626;DHT22;806;48.770;9.156;2023-08-06T09:16:04;16.60;99.90
1626;DHT22;806;48.770;9.156;2023-08-06T09:18:31;16.70;99.90
1626;DHT22;806;48.770;9.156;2023-08-06T09:20:59;16.80;97.90
1626;DHT22;806;48.770;9.156;2023-08-06T09:23:29;16.90;99.90
1626;DHT22;806;48.770;9.156;2023-08-06T09:25:57;17.00;94.50
1626;DHT22;806;48.770;9.156;2023-08-06T09:28:25;17.30;90.80
1626;DHT22;806;48.770;9.156;2023-08-06T09:31:02;17.60;68.20
1626;DHT22;806;48.770;9.156;2023-08-06T09:33:29;17.90;45.70
1626;DHT22;806;48.770;9.156;2023-08-06T09:35:56;17.90;35.00
1626;DHT22;806;48.770;9.156;2023-08-06T09:38:25;17.70;28.00
1626;DHT22;806;48.770;9.156;2023-08-06T09:40:52;17.60;62.00
1626;DHT22;806;48.770;9.156;2023-08-06T09:43:19;17.80;48.30
1626;DHT22;806;48.770;9.156;2023-08-06T09:45:46;17.90;50.50
1626;DHT22;806;48.770;9.156;2023-08-06T09:48:13;17.90;50.30
1626;DHT22;806;48.770;9.156;2023-08-06T09:50:40;17.90;54.00
1626;DHT22;806;48.770;9.156;2023-08-06T09:53:08;17.80;23.80
1626;DHT22;806;48.770;9.156;2023-08-06T09:55:36;18.00;7.30
1626;DHT22;806;48.770;9.156;2023-08-06T09:58:03;18.00;28.40
1626;DHT22;806;48.770;9.156;2023-08-06T10:00:31;18.20;24.70
1626;DHT22;806;48.770;9.156;2023-08-06T10:03:00;18.10;17.80
1626;DHT22;806;48.770;9.156;2023-08-06T10:05:27;18.20;14.50
1626;DHT22;806;48.770;9.156;2023-08-06T10:07:55;17.70;36.90
1626;DHT22;806;48.770;9.156;2023-08-06T10:10:24;17.50;68.50
1626;DHT22;806;48.770;9.156;2023-08-06T10:12:56;17.60;96.90
1626;DHT22;806;48.770;9.156;2023-08-06T10:15:26;17.50;99.90
1626;DHT22;806;48.770;9.156;2023-08-06T10:17:56;17.40;99.90
1626;DHT22;806;48.770;9.156;2023-08-06T10:20:24;17.30;99.90
1626;DHT22;806;48.770;9.156;2023-08-06T10:23:01;17.20;99.90
1626;DHT22;806;48.770;9.156;2023-08-06T10:25:31;17.40;95.10
1626;DHT22;806;48.770;9.156;2023-08-06T10:28:00;17.40;99.90
1626;DHT22;806;48.770;9.156;2023-08-06T10:30:34;17.10;99.90
1626;DHT22;806;48.770;9.156;2023-08-06T10:33:07;16.80;99.90
1626;DHT22;806;48.770;9.156;2023-08-06T10:35:38;16.70;99.90
1626;DHT22;806;48.770;9.156;2023-08-06T10:38:10;16.90;99.90
1626;DHT22;806;48.770;9.156;2023-08-06T10:40:39;17.10;99.90
1626;DHT22;806;48.770;9.156;2023-08-06T10:43:08;17.30;99.90
1626;DHT22;806;48.770;9.156;2023-08-06T10:45:51;17.40;99.90
1626;DHT22;806;48.770;9.156;2023-08-06T10:48:29;17.40;99.90
1626;DHT22;806;48.770;9.156;2023-08-06T10:50:57;17.40;99.90
1626;DHT22;806;48.770;9.156;2023-08-06T10:53:23;17.60;99.90
1626;DHT22;806;48.770;9.156;2023-08-06T10:55:51;17.20;89.00
1626;DHT22;806;48.770;9.156;2023-08-06T10:58:19;17.00;99.90
1626;DHT22;806;48.770;9.156;2023-08-06T11:00:46;17.00;99.90
1626;DHT22;806;48.770;9.156;2023-08-06T11:03:16;17.20;99.90
1626;DHT22;806;48.770;9.156;2023-08-06T11:05:48;17.60;98.50
1626;DHT22;806;48.770;9.156;2023-08-06T11:08:24;17.70;97.00
1626;DHT22;806;48.770;9.156;2023-08-06T11:10:54;17.90;42.20
1626;DHT22;806;48.770;9.156;2023-08-06T11:13:23;17.90;42.90
1626;DHT22;806;48.770;9.156;2023-08-06T11:15:52;18.00;2.10
1626;DHT22;806;48.770;9.156;2023-08-06T11:18:20;17.90;1.00
1626;DHT22;806;48.770;9.156;2023-08-06T11:20:47;17.90;1.00
1626;DHT22;806;48.770;9.156;2023-08-06T11:23:17;17.90;1.00
1626;DHT22;806;48.770;9.156;2023-08-06T11:25:45;17.40;1.00
1626;DHT22;806;48.770;9.156;2023-08-06T11:28:12;17.60;18.30
1626;DHT22;806;48.770;9.156;2023-08-06T11:30:41;17.40;41.20
1626;DHT22;806;48.770;9.156;2023-08-06T11:33:08;17.70;47.00
1626;DHT22;806;48.770;9.156;2023-08-06T11:35:36;17.80;9.80
1626;DHT22;806;48.770;9.156;2023-08-06T11:38:03;17.90;1.00
1626;DHT22;806;48.770;9.156;2023-08-06T11:40:30;17.90;1.00
1626;DHT22;806;48.770;9.156;2023-08-06T11:42:59;17.80;1.00
1626;DHT22;806;48.770;9.156;2023-08-06T11:45:26;17.80;1.00
1626;DHT22;806;48.770;9.156;2023-08-06T11:47:55;17.70;1.00
1626;DHT22;806;48.770;9.156;2023-08-06T11:50:22;17.90;1.00
1626;DHT22;806;48.770;9.156;2023-08-06T11:52:53;17.60;1.00
1626;DHT22;806;48.770;9.156;2023-08-06T11:55:23;17.00;1.00
1626;DHT22;806;48.770;9.156;2023-08-06T11:57:50;16.90;1.00
1626;DHT22;806;48.770;9.156;2023-08-06T12:00:17;17.10;15.00
1626;DHT22;806;48.770;9.156;2023-08-06T12:02:49;17.10;1.40
1626;DHT22;806;48.770;9.156;2023-08-06T12:05:21;17.10;11.40
1626;DHT22;806;48.770;9.156;2023-08-06T12:07:54;17.20;9.50
1626;DHT22;806;48.770;9.156;2023-08-06T12:10:22;17.00;1.00
1626;DHT22;806;48.770;9.156;2023-08-06T12:12:51;16.80;1.00
1626;DHT22;806;48.770;9.156;2023-08-06T12:15:19;16.80;1.00
1626;DHT22;806;48.770;9.156;2023-08-06T12:17:46;16.50;1.00
1626;DHT22;806;48.770;9.156;2023-08-06T12:20:15;16.60;37.60
1626;DHT22;806;48.770;9.156;2023-08-06T12:22:44;16.60;20.30
1626;DHT22;806;48.770;9.156;2023-08-06T12:25:13;16.50;5.50
1626;DHT22;806;48.770;9.156;2023-08-06T12:27:41;16.50;14.30
1626;DHT22;806;48.770;9.156;2023-08-06T12:30:09;16.80;1.00
1626;DHT22;806;48.770;9.156;2023-08-06T12:32:36;16.70;1.00
1626;DHT22;806;48.770;9.156;2023-08-06T12:35:04;16.70;1.00
1626;DHT22;806;48.770;9.156;2023-08-06T12:37:32;17.00;1.00
1626;DHT22;806;48.770;9.156;2023-08-06T12:40:01;17.30;1.00
1626;DHT22;806;48.770;9.156;2023-08-06T12:42:28;17.50;1.00
1626;DHT22;806;48.770;9.156;2023-08-06T12:44:54;17.80;1.00
1626;DHT22;806;48.770;9.156;2023-08-06T12:47:21;18.00;1.00
1626;DHT22;806;48.770;9.156;2023-08-06T12:49:49;18.00;1.00
1626;DHT22;806;48.770;9.156;2023-08-06T12:52:16;18.40;1.00
1626;DHT22;806;48.770;9.156;2023-08-06T12:54:45;18.70;1.00
1626;DHT22;806;48.770;9.156;2023-08-06T12:57:13;18.70;1.00
1626;DHT22;806;48.770;9.156;2023-08-06T12:59:40;18.90;1.00
1626;DHT22;806;48.770;9.156;2023-08-06T13:02:07;18.90;1.00
1626;DHT22;806;48.770;9.156;2023-08-06T13:04:34;18.70;1.00
1626;DHT22;806;48.770;9.156;2023-08-06T13:07:01;18.70;1.00
1626;DHT22;806;48.770;9.156;2023-08-06T13:09:28;18.80;1.00
1626;DHT22;806;48.770;9.156;2023-08-06T13:11:55;19.00;1.00
1626;DHT22;806;48.770;9.156;2023-08-06T13:14:23;18.80;1.00
1626;DHT22;806;48.770;9.156;2023-08-06T13:16:50;18.50;1.00
1626;DHT22;806;48.770;9.156;2023-08-06T13:19:17;18.30;99.90
1626;DHT22;806;48.770;9.156;2023-08-06T13:22:01;18.30;1.00
1626;DHT22;806;48.770;9.156;2023-08-06T13:24:29;18.60;1.00
1626;DHT22;806;48.770;9.156;2023-08-06T13:26:56;18.80;99.90
1626;DHT22;806;48.770;9.156;2023-08-06T13:29:26;19.00;1.00
1626;DHT22;806;48.770;9.156;2023-08-06T13:31:53;19.10;42.60
1626;DHT22;806;48.770;9.156;2023-08-06T13:34:20;18.90;1.00
1626;DHT22;806;48.770;9.156;2023-08-06T13:36:50;19.00;1.00
1626;DHT22;806;48.770;9.156;2023-08-06T13:39:20;18.90;1.00
1626;DHT22;806;48.770;9.156;2023-08-06T13:41:47;18.40;1.00
1626;DHT22;806;48.770;9.156;2023-08-06T13:44:14;18.60;99.90
1626;DHT22;806;48.770;9.156;2023-08-06T13:46:42;18.90;1.00
1626;DHT22;806;48.770;9.156;2023-08-06T13:49:11;18.80;99.90
1626;DHT22;806;48.770;9.156;2023-08-06T13:51:38;18.80;1.00
1626;DHT22;806;48.770;9.156;2023-08-06T13:54:05;18.20;53.80
1626;DHT22;806;48.770;9.156;2023-08-06T13:56:33;18.20;1.00
1626;DHT22;806;48.770;9.156;2023-08-06T13:59:02;18.40;99.90
1626;DHT22;806;48.770;9.156;2023-08-06T14:01:29;18.60;1.00
1626;DHT22;806;48.770;9.156;2023-08-06T14:03:57;18.70;99.90
1626;DHT22;806;48.770;9.156;2023-08-06T14:06:26;18.50;99.90
1626;DHT22;806;48.770;9.156;2023-08-06T14:08:52;18.50;99.90
1626;DHT22;806;48.770;9.156;2023-08-06T14:11:19;18.50;99.90
1626;DHT22;806;48.770;9.156;2023-08-06T14:13:48;18.60;1.00
1626;DHT22;806;48.770;9.156;2023-08-06T14:16:15;18.60;1.00
1626;DHT22;806;48.770;9.156;2023-08-06T14:18:42;18.40;1.00
1626;DHT22;806;48.770;9.156;2023-08-06T14:21:10;18.40;1.00
1626;DHT22;806;48.770;9.156;2023-08-06T14:23:37;18.60;99.90
1626;DHT22;806;48.770;9.156;2023-08-06T14:26:06;18.50;1.00
1626;DHT22;806;48.770;9.156;2023-08-06T14:28:32;18.20;1.00
1626;DHT22;806;48.770;9.156;2023-08-06T14:31:00;18.20;23.20
1626;DHT22;806;48.770;9.156;2023-08-06T14:33:26;18.30;1.00
1626;DHT22;806;48.770;9.156;2023-08-06T14:35:53;18.40;1.00
1626;DHT22;806;48.770;9.156;2023-08-06T14:38:24;18.70;99.90
1626;DHT22;806;48.770;9.156;2023-08-06T14:40:51;18.70;99.90
1626;DHT22;806;48.770;9.156;2023-08-06T14:43:18;18.60;99.90
1626;DHT22;806;48.770;9.156;2023-08-06T14:45:45;18.50;1.00
1626;DHT22;806;48.770;9.156;2023-08-06T14:48:14;18.30;1.00
1626;DHT22;806;48.770;9.156;2023-08-06T14:50:40;17.70;1.00
1626;DHT22;806;48.770;9.156;2023-08-06T14:53:07;17.90;99.90
1626;DHT22;806;48.770;9.156;2023-08-06T14:55:37;17.90;1.00
1626;DHT22;806;48.770;9.156;2023-08-06T14:58:04;17.80;99.90
1626;DHT22;806;48.770;9.156;2023-08-06T15:00:31;18.00;99.90
1626;DHT22;806;48.770;9.156;2023-08-06T15:02:58;17.90;1.00
1626;DHT22;806;48.770;9.156;2023-08-06T15:05:24;17.70;1.00
1626;DHT22;806;48.770;9.156;2023-08-06T15:07:51;17.50;1.00
1626;DHT22;806;48.770;9.156;2023-08-06T15:10:20;17.50;1.00
1626;DHT22;806;48.770;9.156;2023-08-06T15:12:48;17.30;1.00
1626;DHT22;806;48.770;9.156;2023-08-06T15:15:15;17.60;1.00
1626;DHT22;806;48.770;9.156;2023-08-06T15:17:42;17.90;1.00
1626;DHT22;806;48.770;9.156;2023-08-06T15:20:10;18.20;1.00
1626;DHT22;806;48.770;9.156;2023-08-06T15:22:37;18.00;1.00
1626;DHT22;806;48.770;9.156;2023-08-06T15:25:07;18.10;83.20
1626;DHT22;806;48.770;9.156;2023-08-06T15:27:34;18.30;1.00
1626;DHT22;806;48.770;9.156;2023-08-06T15:30:06;18.50;99.90
1626;DHT22;806;48.770;9.156;2023-08-06T15:32:33;18.80;1.00
1626;DHT22;806;48.770;9.156;2023-08-06T15:35:00;19.10;99.90
1626;DHT22;806;48.770;9.156;2023-08-06T15:37:26;19.20;1.00
1626;DHT22;806;48.770;9.156;2023-08-06T15:39:55;19.20;1.00
1626;DHT22;806;48.770;9.156;2023-08-06T15:42:22;19.10;1.00
1626;DHT22;806;48.770;9.156;2023-08-06T15:44:49;19.00;1.00
1626;DHT22;806;48.770;9.156;2023-08-06T15:47:17;19.10;1.00
1626;DHT22;806;48.770;9.156;2023-08-06T15:49:45;19.20;1.00
1626;DHT22;806;48.770;9.156;2023-08-06T15:52:12;19.00;99.90
1626;DHT22;806;48.770;9.156;2023-08-06T15:54:39;19.20;1.00
1626;DHT22;806;48.770;9.156;2023-08-06T15:57:05;19.20;99.90
1626;DHT22;806;48.770;9.156;2023-08-06T15:59:32;19.30;99.90
1626;DHT22;806;48.770;9.156;2023-08-06T16:02:00;19.60;99.90
1626;DHT22;806;48.770;9.156;2023-08-06T16:04:30;19.60;1.00
1626;DHT22;806;48.770;9.156;2023-08-06T16:06:57;19.20;1.00
1626;DHT22;806;48.770;9.156;2023-08-06T16:09:24;19.30;99.90
1626;DHT22;806;48.770;9.156;2023-08-06T16:11:52;19.30;99.90
1626;DHT22;806;48.770;9.156;2023-08-06T16:14:19;19.20;1.00
1626;DHT22;806;48.770;9.156;2023-08-06T16:16:47;18.90;1.00
1626;DHT22;806;48.770;9.156;2023-08-06T16:19:14;18.90;30.10
1626;DHT22;806;48.770;9.156;2023-08-06T16:21:42;18.90;1.00
1626;DHT22;806;48.770;9.156;2023-08-06T16:24:09;19.00;1.00
1626;DHT22;806;48.770;9.156;2023-08-06T16:26:36;18.80;1.00